| time (UTC) | temp F | wind direction | speed knots | gust knots | rain 1hr in | rain 24hr in | rain mn in | humidity % | barometer mb |
| 20260906022121 | 73 | 50 | 1.7 | 4.3 | 0.00 | 0.00 | 0.00 | 99 | 1015.6 |
| 20260906021121 | 74 | 10 | 1.7 | 2.6 | 0.00 | 0.00 | 0.00 | 99 | 1015.7 |
| 20260906020121 | 74 | 37 | 0.0 | 1.7 | 0.00 | 0.00 | 0.00 | 98 | 1015.7 |
| 20260906015121 | 75 | 8 | 0.9 | 2.6 | 0.00 | 0.00 | 0.00 | 98 | 1015.6 |
| 20260906014122 | 75 | 339 | 1.7 | 2.6 | 0.00 | 0.00 | 0.00 | 97 | 1015.6 |
| 20260906013121 | 76 | 3 | 1.7 | 2.6 | 0.00 | 0.00 | 0.00 | 96 | 1015.2 |
| 20260906012122 | 76 | 337 | 2.6 | 3.5 | 0.00 | 0.00 | 0.00 | 95 | 1015.2 |
| 20260906011142 | 77 | 346 | 3.5 | 4.3 | 0.00 | 0.00 | 0.00 | 94 | 1015.1 |
| 20260906010122 | 77 | 346 | 3.5 | 5.2 | 0.00 | 0.00 | 0.00 | 93 | 1015.1 |
| 20260906005122 | 78 | 344 | 3.5 | 5.2 | 0.00 | 0.00 | 0.00 | 91 | 1015.1 |
| 20260906004121 | 79 | 310 | 4.3 | 7.0 | 0.00 | 0.00 | 0.00 | 90 | 1015.0 |
| 20260906003121 | 79 | 339 | 3.5 | 5.2 | 0.00 | 0.00 | 0.00 | 90 | 1014.8 |
| 20260906002121 | 80 | 328 | 3.5 | 5.2 | 0.00 | 0.00 | 0.00 | 89 | 1014.7 |
| 20260906001122 | 81 | 349 | 3.5 | 6.1 | 0.00 | 0.00 | 0.00 | 87 | 1014.7 |
| 20260906000143 | 82 | 332 | 2.6 | 3.5 | 0.00 | 0.00 | 0.00 | 86 | 1014.6 |
| 20260905235122 | 83 | 327 | 2.6 | 4.3 | 0.00 | 0.00 | 0.00 | 84 | 1014.6 |
| 20260905234121 | 84 | 342 | 2.6 | 4.3 | 0.00 | 0.00 | 0.00 | 84 | 1014.6 |
| 20260905233121 | 84 | 350 | 3.5 | 6.1 | 0.00 | 0.00 | 0.00 | 83 | 1014.5 |
| 20260905232121 | 85 | 322 | 3.5 | 6.1 | 0.00 | 0.00 | 0.00 | 84 | 1014.2 |
| 20260905231142 | 86 | 3 | 3.5 | 5.2 | 0.00 | 0.00 | 0.00 | 83 | 1014.1 |
| 20260905230121 | 87 | 12 | 3.5 | 5.2 | 0.00 | 0.00 | 0.00 | 81 | 1014.3 |
| 20260905225121 | 87 | 338 | 4.3 | 7.0 | 0.00 | 0.00 | 0.00 | 81 | 1014.3 |
| 20260905224121 | 88 | 342 | 3.5 | 5.2 | 0.00 | 0.00 | 0.00 | 80 | 1014.2 |
| 20260905223121 | 89 | 328 | 3.5 | 6.1 | 0.00 | 0.00 | 0.00 | 77 | 1014.2 |
| 20260905222121 | 90 | 329 | 3.5 | 5.2 | 0.00 | 0.00 | 0.00 | 76 | 1014.2 |
| 20260905221122 | 91 | 346 | 3.5 | 5.2 | 0.00 | 0.00 | 0.00 | 74 | 1014.0 |
| 20260905220121 | 90 | 326 | 3.5 | 6.1 | 0.00 | 0.00 | 0.00 | 75 | 1013.9 |
| 20260905215143 | 91 | 322 | 3.5 | 6.1 | 0.00 | 0.00 | 0.00 | 72 | 1014.0 |
| 20260905214121 | 91 | 341 | 3.5 | 5.2 | 0.00 | 0.00 | 0.00 | 72 | 1014.0 |
| 20260905213122 | 92 | 325 | 3.5 | 5.2 | 0.00 | 0.00 | 0.00 | 72 | 1013.9 |
| 20260905212122 | 92 | 339 | 3.5 | 5.2 | 0.00 | 0.00 | 0.00 | 70 | 1013.9 |
| 20260905211121 | 91 | 358 | 2.6 | 5.2 | 0.00 | 0.00 | 0.00 | 74 | 1013.9 |
| 20260905210122 | 92 | 356 | 2.6 | 4.3 | 0.00 | 0.00 | 0.00 | 74 | 1014.0 |
| 20260905205122 | 90 | 332 | 3.5 | 5.2 | 0.00 | 0.00 | 0.00 | 76 | 1014.0 |
| 20260905204121 | 92 | 336 | 3.5 | 5.2 | 0.00 | 0.00 | 0.00 | 72 | 1014.1 |
| 20260905203121 | 90 | 352 | 3.5 | 6.1 | 0.00 | 0.00 | 0.00 | 76 | 1014.3 |
| 20260905202142 | 91 | 329 | 2.6 | 6.1 | 0.00 | 0.00 | 0.00 | 73 | 1014.1 |
| 20260905201121 | 92 | 315 | 2.6 | 5.2 | 0.00 | 0.00 | 0.00 | 72 | 1014.3 |
| 20260905200122 | 90 | 347 | 2.6 | 4.3 | 0.00 | 0.00 | 0.00 | 76 | 1014.5 |
| 20260905195122 | 90 | 343 | 2.6 | 5.2 | 0.00 | 0.00 | 0.00 | 74 | 1014.3 |
| 20260905194122 | 92 | 321 | 2.6 | 3.5 | 0.00 | 0.00 | 0.00 | 73 | 1014.3 |
| 20260905193122 | 90 | 344 | 2.6 | 5.2 | 0.00 | 0.00 | 0.00 | 78 | 1014.5 |
| 20260905192122 | 93 | 342 | 1.7 | 4.3 | 0.00 | 0.00 | 0.00 | 72 | 1014.4 |
| 20260905191121 | 91 | 320 | 2.6 | 4.3 | 0.00 | 0.00 | 0.00 | 77 | 1014.7 |
| 20260905190122 | 92 | 352 | 2.6 | 4.3 | 0.00 | 0.00 | 0.00 | 76 | 1014.6 |
| 20260905185122 | 91 | 335 | 2.6 | 4.3 | 0.00 | 0.00 | 0.00 | 74 | 1014.6 |
| 20260905184122 | 93 | 352 | 2.6 | 5.2 | 0.00 | 0.00 | 0.00 | 73 | 1014.8 |
| 20260905183122 | 93 | 354 | 3.5 | 5.2 | 0.00 | 0.00 | 0.00 | 71 | 1014.8 |
| 20260905182121 | 92 | 341 | 2.6 | 5.2 | 0.00 | 0.00 | 0.00 | 74 | 1014.8 |
| 20260905181122 | 94 | 327 | 2.6 | 4.3 | 0.00 | 0.00 | 0.00 | 72 | 1014.9 |
| 20260905180122 | 93 | 339 | 2.6 | 5.2 | 0.00 | 0.00 | 0.00 | 71 | 1014.9 |
| 20260905175122 | 93 | 324 | 2.6 | 6.1 | 0.00 | 0.00 | 0.00 | 71 | 1014.9 |
| 20260905174122 | 92 | 9 | 2.6 | 4.3 | 0.00 | 0.00 | 0.00 | 74 | 1015.1 |
| 20260905173122 | 92 | 328 | 2.6 | 4.3 | 0.00 | 0.00 | 0.00 | 75 | 1015.1 |
| 20260905172122 | 91 | 326 | 3.5 | 4.3 | 0.00 | 0.00 | 0.00 | 72 | 1015.2 |
| 20260905171122 | 92 | 318 | 2.6 | 4.3 | 0.00 | 0.00 | 0.00 | 74 | 1015.2 |
| 20260905170122 | 91 | 320 | 2.6 | 4.3 | 0.00 | 0.00 | 0.00 | 76 | 1015.3 |
| 20260905165121 | 91 | 334 | 2.6 | 4.3 | 0.00 | 0.00 | 0.00 | 75 | 1015.3 |
| 20260905164121 | 91 | 10 | 2.6 | 4.3 | 0.00 | 0.00 | 0.00 | 77 | 1015.4 |
| 20260905163122 | 91 | 336 | 3.5 | 5.2 | 0.00 | 0.00 | 0.00 | 76 | 1015.3 |
| 20260905162122 | 90 | 323 | 2.6 | 4.3 | 0.00 | 0.00 | 0.00 | 78 | 1015.5 |
| 20260905161122 | 90 | 346 | 2.6 | 4.3 | 0.00 | 0.00 | 0.00 | 78 | 1015.4 |
| 20260905160122 | 89 | 338 | 3.5 | 5.2 | 0.00 | 0.00 | 0.00 | 78 | 1015.4 |
| 20260905155122 | 90 | 2 | 3.5 | 5.2 | 0.00 | 0.00 | 0.00 | 79 | 1015.4 |
| 20260905154122 | 89 | 314 | 2.6 | 5.2 | 0.00 | 0.00 | 0.00 | 77 | 1015.3 |
| 20260905153122 | 88 | 333 | 2.6 | 4.3 | 0.00 | 0.00 | 0.00 | 78 | 1015.1 |
| 20260905152122 | 89 | 331 | 2.6 | 4.3 | 0.00 | 0.00 | 0.00 | 76 | 1015.3 |
| 20260905151122 | 88 | 337 | 3.5 | 5.2 | 0.00 | 0.00 | 0.00 | 77 | 1015.0 |
| 20260905150122 | 87 | 339 | 3.5 | 6.1 | 0.00 | 0.00 | 0.00 | 76 | 1015.0 |
| 20260905145122 | 87 | 341 | 3.5 | 5.2 | 0.00 | 0.00 | 0.00 | 77 | 1015.0 |
| 20260905144122 | 87 | 326 | 3.5 | 6.1 | 0.00 | 0.00 | 0.00 | 76 | 1014.9 |
| 20260905143122 | 87 | 329 | 2.6 | 4.3 | 0.00 | 0.00 | 0.00 | 76 | 1015.0 |
| 20260905142122 | 87 | 320 | 2.6 | 4.3 | 0.00 | 0.00 | 0.00 | 78 | 1014.7 |
| 20260905141143 | 87 | 315 | 1.7 | 3.5 | 0.00 | 0.00 | 0.00 | 77 | 1014.7 |
| 20260905140121 | 87 | 307 | 1.7 | 3.5 | 0.00 | 0.00 | 0.00 | 79 | 1014.6 |
| 20260905135122 | 86 | 330 | 0.9 | 2.6 | 0.00 | 0.00 | 0.00 | 79 | 1014.6 |
| 20260905134143 | 84 | 328 | 0.9 | 2.6 | 0.00 | 0.00 | 0.00 | 81 | 1014.6 |
| 20260905133121 | 83 | 10 | 0.9 | 3.5 | 0.00 | 0.00 | 0.00 | 85 | 1014.5 |
| 20260905132122 | 84 | 3 | 1.7 | 3.5 | 0.00 | 0.00 | 0.00 | 83 | 1014.7 |
| 20260905131122 | 83 | 51 | 0.9 | 2.6 | 0.00 | 0.00 | 0.00 | 86 | 1014.7 |
| 20260905130121 | 82 | 229 | 0.9 | 2.6 | 0.00 | 0.00 | 0.00 | 87 | 1014.3 |
| 20260905125122 | 81 | 242 | 1.7 | 3.5 | 0.00 | 0.00 | 0.00 | 90 | 1014.3 |
| 20260905124122 | 80 | 238 | 1.7 | 2.6 | 0.00 | 0.00 | 0.00 | 92 | 1014.3 |
| 20260905123122 | 79 | 236 | 0.9 | 2.6 | 0.00 | 0.00 | 0.00 | 94 | 1014.2 |
| 20260905122122 | 77 | 235 | 1.7 | 1.7 | 0.00 | 0.00 | 0.00 | 99 | 1014.3 |
| 20260905121122 | 76 | 242 | 0.9 | 1.7 | 0.00 | 0.00 | 0.00 | 99 | 1014.1 |
| 20260905120121 | 74 | 203 | 0.0 | 0.0 | 0.00 | 0.00 | 0.00 | 99 | 1013.9 |
| 20260905115122 | 73 | 180 | 0.0 | 0.0 | 0.00 | 0.00 | 0.00 | 99 | 1013.8 |
| 20260905114122 | 73 | 180 | 0.0 | 0.0 | 0.00 | 0.00 | 0.00 | 99 | 1013.8 |
| 20260905113122 | 73 | 180 | 0.0 | 0.0 | 0.00 | 0.00 | 0.00 | 99 | 1013.8 |
| 20260905112143 | 73 | 180 | 0.0 | 0.0 | 0.00 | 0.00 | 0.00 | 99 | 1013.8 |
| 20260905111122 | 73 | 180 | 0.0 | 0.0 | 0.00 | 0.00 | 0.00 | 99 | 1013.6 |
| 20260905110122 | 73 | 135 | 0.0 | 0.0 | 0.00 | 0.00 | 0.00 | 99 | 1013.6 |
| 20260905105122 | 73 | 203 | 0.0 | 0.0 | 0.00 | 0.00 | 0.00 | 99 | 1013.6 |
| 20260905104122 | 74 | 113 | 0.0 | 0.0 | 0.00 | 0.00 | 0.00 | 99 | 1013.9 |
| 20260905103143 | 73 | 203 | 0.0 | 0.0 | 0.00 | 0.00 | 0.00 | 99 | 1013.8 |
| 20260905102143 | 74 | 315 | 0.0 | 0.0 | 0.00 | 0.00 | 0.00 | 99 | 1013.8 |
| 20260905101143 | 74 | 203 | 0.0 | 0.0 | 0.00 | 0.00 | 0.00 | 99 | 1013.6 |
| 20260905100122 | 74 | 158 | 0.0 | 0.0 | 0.00 | 0.00 | 0.00 | 99 | 1013.9 |
| 20260905095143 | 74 | 203 | 0.0 | 0.0 | 0.00 | 0.00 | 0.00 | 99 | 1013.9 |
| 20260905094122 | 74 | 225 | 0.0 | 0.0 | 0.00 | 0.00 | 0.00 | 99 | 1013.9 |
| 20260905093122 | 75 | 225 | 0.0 | 0.0 | 0.00 | 0.00 | 0.00 | 99 | 1013.9 |
| 20260905092122 | 75 | 180 | 0.0 | 0.0 | 0.00 | 0.00 | 0.00 | 99 | 1013.9 |
| 20260905091122 | 75 | 203 | 0.0 | 0.0 | 0.00 | 0.00 | 0.00 | 99 | 1013.9 |
| 20260905090122 | 75 | 135 | 0.0 | 0.0 | 0.00 | 0.00 | 0.00 | 99 | 1013.8 |
| 20260905085122 | 75 | 175 | 0.0 | 1.7 | 0.00 | 0.00 | 0.00 | 99 | 1013.8 |
| 20260905084122 | 75 | 180 | 0.0 | 0.0 | 0.00 | 0.00 | 0.00 | 99 | 1014.0 |
| 20260905083122 | 75 | 203 | 0.0 | 0.0 | 0.00 | 0.00 | 0.00 | 99 | 1014.0 |
| 20260905082122 | 75 | 180 | 0.0 | 0.0 | 0.00 | 0.00 | 0.00 | 99 | 1014.1 |
| 20260905081122 | 75 | 158 | 0.0 | 0.0 | 0.00 | 0.00 | 0.00 | 99 | 1014.0 |
| 20260905080122 | 75 | 135 | 0.0 | 0.0 | 0.00 | 0.00 | 0.00 | 99 | 1014.1 |
| 20260905075122 | 75 | 225 | 0.0 | 0.0 | 0.00 | 0.00 | 0.00 | 99 | 1014.1 |
| 20260905074122 | 75 | 203 | 0.0 | 0.0 | 0.00 | 0.00 | 0.00 | 99 | 1014.1 |
| 20260905073122 | 74 | 225 | 0.0 | 0.0 | 0.00 | 0.00 | 0.00 | 99 | 1014.2 |
| 20260905072143 | 74 | 203 | 0.0 | 0.0 | 0.00 | 0.00 | 0.00 | 99 | 1014.4 |
| 20260905071122 | 74 | 180 | 0.0 | 0.0 | 0.00 | 0.00 | 0.00 | 99 | 1014.2 |
| 20260905070122 | 75 | 135 | 0.0 | 0.0 | 0.00 | 0.00 | 0.00 | 99 | 1014.3 |
| 20260905065122 | 75 | 158 | 0.0 | 0.0 | 0.00 | 0.00 | 0.00 | 99 | 1014.3 |
| 20260905064122 | 75 | 23 | 0.0 | 0.0 | 0.00 | 0.00 | 0.00 | 99 | 1014.2 |
| 20260905063143 | 75 | 180 | 0.0 | 0.0 | 0.00 | 0.00 | 0.00 | 99 | 1014.4 |
| 20260905062122 | 75 | 203 | 0.0 | 0.0 | 0.00 | 0.00 | 0.00 | 99 | 1014.5 |
| 20260905061122 | 76 | 180 | 0.0 | 0.0 | 0.00 | 0.00 | 0.00 | 99 | 1014.7 |
| 20260905060122 | 75 | 203 | 0.0 | 0.0 | 0.00 | 0.00 | 0.00 | 99 | 1014.7 |
| 20260905055122 | 75 | 158 | 0.0 | 0.0 | 0.00 | 0.00 | 0.00 | 99 | 1014.7 |
| 20260905054143 | 75 | 158 | 0.0 | 0.0 | 0.00 | 0.00 | 0.00 | 99 | 1014.6 |
| 20260905053122 | 75 | 158 | 0.0 | 0.0 | 0.00 | 0.00 | 0.00 | 99 | 1014.6 |
| 20260905052122 | 75 | 158 | 0.0 | 0.0 | 0.00 | 0.00 | 0.00 | 99 | 1014.5 |
| 20260905051122 | 75 | 23 | 0.0 | 0.0 | 0.00 | 0.00 | 0.00 | 99 | 1014.5 |
| 20260905050122 | 76 | 180 | 0.0 | 0.0 | 0.00 | 0.00 | 0.00 | 99 | 1014.5 |
| 20260905045143 | 76 | 135 | 0.0 | 0.0 | 0.00 | 0.00 | 0.00 | 99 | 1014.5 |
| 20260905044143 | 76 | 23 | 0.0 | 0.0 | 0.00 | 0.00 | 0.00 | 99 | 1014.6 |
| 20260905043122 | 77 | 360 | 0.0 | 0.0 | 0.00 | 0.00 | 0.00 | 99 | 1014.6 |
| 20260905042122 | 77 | 61 | 0.0 | 1.7 | 0.00 | 0.00 | 0.00 | 99 | 1014.5 |
| 20260905041122 | 77 | 113 | 0.0 | 0.0 | 0.00 | 0.00 | 0.00 | 99 | 1014.4 |
| 20260905040122 | 77 | 202 | 0.9 | 1.7 | 0.00 | 0.00 | 0.00 | 99 | 1014.4 |
| 20260905035123 | 76 | 203 | 0.0 | 0.0 | 0.00 | 0.00 | 0.00 | 99 | 1014.4 |
| 20260905034122 | 76 | 203 | 0.0 | 0.0 | 0.00 | 0.00 | 0.00 | 99 | 1014.4 |
| 20260905033122 | 77 | 360 | 0.0 | 0.0 | 0.00 | 0.00 | 0.00 | 98 | 1014.5 |
| 20260905032122 | 77 | 360 | 0.0 | 0.0 | 0.00 | 0.00 | 0.00 | 98 | 1014.5 |
| 20260905031122 | 77 | 113 | 0.0 | 0.0 | 0.00 | 0.00 | 0.00 | 99 | 1014.4 |
| 20260905030122 | 77 | 293 | 0.0 | 0.0 | 0.00 | 0.00 | 0.00 | 99 | 1014.2 |
| 20260905025122 | 78 | 195 | 0.9 | 1.7 | 0.00 | 0.00 | 0.00 | 98 | 1014.2 |
| 20260905024122 | 77 | 180 | 0.0 | 0.0 | 0.00 | 0.00 | 0.00 | 99 | 1014.3 |
| 20260905023122 | 77 | 158 | 0.0 | 0.0 | 0.00 | 0.00 | 0.00 | 99 | 1014.3 |